sensor_id;sensor_type;location;lat;lon;timestamp;temperature;humidity
55083;DHT22;40978;52.850;6.506;2023-01-01T00:01:26;13.00;99.90
55083;DHT22;40978;52.850;6.506;2023-01-01T00:03:54;13.00;99.90
55083;DHT22;40978;52.850;6.506;2023-01-01T00:06:21;13.00;99.90
55083;DHT22;40978;52.850;6.506;2023-01-01T00:08:47;12.90;99.90
55083;DHT22;40978;52.850;6.506;2023-01-01T00:11:13;12.90;99.90
55083;DHT22;40978;52.850;6.506;2023-01-01T00:13:41;12.90;99.90
55083;DHT22;40978;52.850;6.506;2023-01-01T00:16:12;12.80;99.90
55083;DHT22;40978;52.850;6.506;2023-01-01T00:18:38;12.80;99.90
55083;DHT22;40978;52.850;6.506;2023-01-01T00:21:13;12.80;99.90
55083;DHT22;40978;52.850;6.506;2023-01-01T00:23:38;12.80;99.90
55083;DHT22;40978;52.850;6.506;2023-01-01T00:26:15;12.70;99.90
55083;DHT22;40978;52.850;6.506;2023-01-01T00:28:42;12.70;99.90
55083;DHT22;40978;52.850;6.506;2023-01-01T00:31:14;12.70;99.90
55083;DHT22;40978;52.850;6.506;2023-01-01T00:33:42;12.70;99.90
55083;DHT22;40978;52.850;6.506;2023-01-01T00:36:09;12.70;99.90
55083;DHT22;40978;52.850;6.506;2023-01-01T00:38:35;12.60;99.90
55083;DHT22;40978;52.850;6.506;2023-01-01T00:41:01;12.60;99.90
55083;DHT22;40978;52.850;6.506;2023-01-01T00:43:27;12.60;99.90
55083;DHT22;40978;52.850;6.506;2023-01-01T00:45:53;12.60;99.90
55083;DHT22;40978;52.850;6.506;2023-01-01T00:48:19;12.60;99.90
55083;DHT22;40978;52.850;6.506;2023-01-01T00:50:49;12.70;99.90
55083;DHT22;40978;52.850;6.506;2023-01-01T00:53:15;12.70;99.90
55083;DHT22;40978;52.850;6.506;2023-01-01T00:55:41;12.70;99.90
55083;DHT22;40978;52.850;6.506;2023-01-01T00:58:07;12.70;99.90
55083;DHT22;40978;52.850;6.506;2023-01-01T01:00:33;12.80;99.90
55083;DHT22;40978;52.850;6.506;2023-01-01T01:03:00;12.80;99.90
55083;DHT22;40978;52.850;6.506;2023-01-01T01:05:25;12.80;99.90
55083;DHT22;40978;52.850;6.506;2023-01-01T01:07:51;12.80;99.90
55083;DHT22;40978;52.850;6.506;2023-01-01T01:10:17;12.80;99.90
55083;DHT22;40978;52.850;6.506;2023-01-01T01:12:46;12.90;99.90
55083;DHT22;40978;52.850;6.506;2023-01-01T01:15:12;12.90;99.90
55083;DHT22;40978;52.850;6.506;2023-01-01T01:17:38;12.90;99.90
55083;DHT22;40978;52.850;6.506;2023-01-01T01:20:04;13.00;99.90
55083;DHT22;40978;52.850;6.506;2023-01-01T01:22:30;13.00;99.90
55083;DHT22;40978;52.850;6.506;2023-01-01T01:24:56;13.00;99.90
55083;DHT22;40978;52.850;6.506;2023-01-01T01:27:22;13.10;99.90
55083;DHT22;40978;52.850;6.506;2023-01-01T01:29:48;13.10;99.90
55083;DHT22;40978;52.850;6.506;2023-01-01T01:32:14;13.10;99.90
55083;DHT22;40978;52.850;6.506;2023-01-01T01:34:39;13.10;99.90
55083;DHT22;40978;52.850;6.506;2023-01-01T01:37:05;13.10;99.90
55083;DHT22;40978;52.850;6.506;2023-01-01T01:39:31;13.10;99.90
55083;DHT22;40978;52.850;6.506;2023-01-01T01:41:57;13.10;99.90
55083;DHT22;40978;52.850;6.506;2023-01-01T01:44:52;13.10;99.90
55083;DHT22;40978;52.850;6.506;2023-01-01T01:47:31;13.10;99.90
55083;DHT22;40978;52.850;6.506;2023-01-01T01:50:08;13.10;99.90
55083;DHT22;40978;52.850;6.506;2023-01-01T01:52:36;13.10;99.90
55083;DHT22;40978;52.850;6.506;2023-01-01T01:55:06;13.10;99.90
55083;DHT22;40978;52.850;6.506;2023-01-01T01:57:32;13.00;99.90
55083;DHT22;40978;52.850;6.506;2023-01-01T01:59:59;13.00;99.90
55083;DHT22;40978;52.850;6.506;2023-01-01T02:02:35;13.00;99.90
55083;DHT22;40978;52.850;6.506;2023-01-01T02:05:04;13.00;99.90
55083;DHT22;40978;52.850;6.506;2023-01-01T02:07:31;12.90;99.90
55083;DHT22;40978;52.850;6.506;2023-01-01T02:09:58;13.00;99.90
55083;DHT22;40978;52.850;6.506;2023-01-01T02:12:28;13.00;99.90
55083;DHT22;40978;52.850;6.506;2023-01-01T02:14:54;13.00;99.90
55083;DHT22;40978;52.850;6.506;2023-01-01T02:25:21;13.00;99.90
55083;DHT22;40978;52.850;6.506;2023-01-01T02:30:50;13.10;99.90
55083;DHT22;40978;52.850;6.506;2023-01-01T02:33:21;13.10;99.90
55083;DHT22;40978;52.850;6.506;2023-01-01T02:35:57;13.10;99.90
55083;DHT22;40978;52.850;6.506;2023-01-01T02:38:31;13.10;99.90
55083;DHT22;40978;52.850;6.506;2023-01-01T02:41:18;13.20;99.90
55083;DHT22;40978;52.850;6.506;2023-01-01T02:43:45;13.10;99.90
55083;DHT22;40978;52.850;6.506;2023-01-01T02:46:11;13.20;99.90
55083;DHT22;40978;52.850;6.506;2023-01-01T02:51:16;13.10;99.90
55083;DHT22;40978;52.850;6.506;2023-01-01T02:53:56;13.20;99.90
55083;DHT22;40978;52.850;6.506;2023-01-01T02:59:33;13.20;99.90
55083;DHT22;40978;52.850;6.506;2023-01-01T03:08:07;13.20;99.90
55083;DHT22;40978;52.850;6.506;2023-01-01T03:11:04;13.30;99.90
55083;DHT22;40978;52.850;6.506;2023-01-01T03:13:57;13.30;99.90
55083;DHT22;40978;52.850;6.506;2023-01-01T03:16:38;13.40;99.90
55083;DHT22;40978;52.850;6.506;2023-01-01T03:27:26;13.60;99.90
55083;DHT22;40978;52.850;6.506;2023-01-01T03:29:55;13.70;99.90
55083;DHT22;40978;52.850;6.506;2023-01-01T03:32:34;13.70;99.90
55083;DHT22;40978;52.850;6.506;2023-01-01T03:35:21;13.70;99.90
55083;DHT22;40978;52.850;6.506;2023-01-01T03:37:50;13.80;99.90
55083;DHT22;40978;52.850;6.506;2023-01-01T03:40:19;13.80;99.90
55083;DHT22;40978;52.850;6.506;2023-01-01T03:42:51;13.80;99.90
55083;DHT22;40978;52.850;6.506;2023-01-01T03:45:23;13.90;99.90
55083;DHT22;40978;52.850;6.506;2023-01-01T03:47:50;13.90;99.90
55083;DHT22;40978;52.850;6.506;2023-01-01T03:50:16;13.80;99.90
55083;DHT22;40978;52.850;6.506;2023-01-01T03:53:01;13.90;99.90
55083;DHT22;40978;52.850;6.506;2023-01-01T03:55:36;13.90;99.90
55083;DHT22;40978;52.850;6.506;2023-01-01T03:58:13;13.90;99.90
55083;DHT22;40978;52.850;6.506;2023-01-01T04:00:52;13.90;99.90
55083;DHT22;40978;52.850;6.506;2023-01-01T04:03:25;14.00;99.90
55083;DHT22;40978;52.850;6.506;2023-01-01T04:05:52;13.90;99.90
55083;DHT22;40978;52.850;6.506;2023-01-01T04:08:18;14.00;99.90
55083;DHT22;40978;52.850;6.506;2023-01-01T04:10:47;14.00;99.90
55083;DHT22;40978;52.850;6.506;2023-01-01T04:13:15;13.90;99.90
55083;DHT22;40978;52.850;6.506;2023-01-01T04:15:41;13.90;99.90
55083;DHT22;40978;52.850;6.506;2023-01-01T04:18:07;13.90;99.90
55083;DHT22;40978;52.850;6.506;2023-01-01T04:20:32;13.90;99.90
55083;DHT22;40978;52.850;6.506;2023-01-01T04:22:59;13.90;99.90
55083;DHT22;40978;52.850;6.506;2023-01-01T04:25:26;14.00;99.90
55083;DHT22;40978;52.850;6.506;2023-01-01T04:27:51;13.90;99.90
55083;DHT22;40978;52.850;6.506;2023-01-01T04:30:17;14.00;99.90
55083;DHT22;40978;52.850;6.506;2023-01-01T04:32:43;13.90;99.90
55083;DHT22;40978;52.850;6.506;2023-01-01T04:35:10;13.80;99.90
55083;DHT22;40978;52.850;6.506;2023-01-01T04:37:42;13.80;99.90
55083;DHT22;40978;52.850;6.506;2023-01-01T04:40:09;13.80;99.90
55083;DHT22;40978;52.850;6.506;2023-01-01T04:42:35;13.70;99.90
55083;DHT22;40978;52.850;6.506;2023-01-01T04:45:01;13.50;99.90
55083;DHT22;40978;52.850;6.506;2023-01-01T04:47:27;13.40;99.90
55083;DHT22;40978;52.850;6.506;2023-01-01T04:49:53;13.30;99.90
55083;DHT22;40978;52.850;6.506;2023-01-01T04:52:19;13.20;99.90
55083;DHT22;40978;52.850;6.506;2023-01-01T04:54:45;13.10;99.90
55083;DHT22;40978;52.850;6.506;2023-01-01T04:57:11;13.10;99.90
55083;DHT22;40978;52.850;6.506;2023-01-01T04:59:36;13.00;99.90
55083;DHT22;40978;52.850;6.506;2023-01-01T05:02:02;13.10;99.90
55083;DHT22;40978;52.850;6.506;2023-01-01T05:04:28;13.10;99.90
55083;DHT22;40978;52.850;6.506;2023-01-01T05:06:54;13.10;99.90
55083;DHT22;40978;52.850;6.506;2023-01-01T05:09:20;13.20;99.90
55083;DHT22;40978;52.850;6.506;2023-01-01T05:11:45;13.20;99.90
55083;DHT22;40978;52.850;6.506;2023-01-01T05:14:11;13.20;99.90
55083;DHT22;40978;52.850;6.506;2023-01-01T05:16:38;13.20;99.90
55083;DHT22;40978;52.850;6.506;2023-01-01T05:19:05;13.30;99.90
55083;DHT22;40978;52.850;6.506;2023-01-01T05:21:36;13.30;99.90
55083;DHT22;40978;52.850;6.506;2023-01-01T05:24:07;13.30;99.90
55083;DHT22;40978;52.850;6.506;2023-01-01T05:26:36;13.30;99.90
55083;DHT22;40978;52.850;6.506;2023-01-01T05:29:02;13.20;99.90
55083;DHT22;40978;52.850;6.506;2023-01-01T05:31:34;13.20;99.90
55083;DHT22;40978;52.850;6.506;2023-01-01T05:34:01;13.20;99.90
55083;DHT22;40978;52.850;6.506;2023-01-01T05:36:30;13.20;99.90
55083;DHT22;40978;52.850;6.506;2023-01-01T05:38:56;13.30;99.90
55083;DHT22;40978;52.850;6.506;2023-01-01T05:41:23;13.20;99.90
55083;DHT22;40978;52.850;6.506;2023-01-01T05:43:50;13.20;99.90
55083;DHT22;40978;52.850;6.506;2023-01-01T05:46:18;13.20;99.90
55083;DHT22;40978;52.850;6.506;2023-01-01T05:48:45;13.20;99.90
55083;DHT22;40978;52.850;6.506;2023-01-01T05:51:20;13.10;99.90
55083;DHT22;40978;52.850;6.506;2023-01-01T05:53:46;13.10;99.90
55083;DHT22;40978;52.850;6.506;2023-01-01T05:56:12;13.10;99.90
55083;DHT22;40978;52.850;6.506;2023-01-01T05:58:39;13.10;99.90
55083;DHT22;40978;52.850;6.506;2023-01-01T06:01:17;13.00;99.90
55083;DHT22;40978;52.850;6.506;2023-01-01T06:03:43;13.00;99.90
55083;DHT22;40978;52.850;6.506;2023-01-01T06:06:11;13.00;99.90
55083;DHT22;40978;52.850;6.506;2023-01-01T06:08:38;13.00;99.90
55083;DHT22;40978;52.850;6.506;2023-01-01T06:11:05;12.90;99.90
55083;DHT22;40978;52.850;6.506;2023-01-01T06:13:32;12.90;99.90
55083;DHT22;40978;52.850;6.506;2023-01-01T06:15:59;12.80;99.90
55083;DHT22;40978;52.850;6.506;2023-01-01T06:18:28;12.80;99.90
55083;DHT22;40978;52.850;6.506;2023-01-01T06:20:54;12.80;99.90
55083;DHT22;40978;52.850;6.506;2023-01-01T06:23:20;12.80;99.90
55083;DHT22;40978;52.850;6.506;2023-01-01T06:25:46;12.70;99.90
55083;DHT22;40978;52.850;6.506;2023-01-01T06:28:11;12.70;99.90
55083;DHT22;40978;52.850;6.506;2023-01-01T06:30:37;12.70;99.90
55083;DHT22;40978;52.850;6.506;2023-01-01T06:33:03;12.70;99.90
55083;DHT22;40978;52.850;6.506;2023-01-01T06:35:30;12.60;99.90
55083;DHT22;40978;52.850;6.506;2023-01-01T06:37:58;12.60;99.90
55083;DHT22;40978;52.850;6.506;2023-01-01T06:40:24;12.60;99.90
55083;DHT22;40978;52.850;6.506;2023-01-01T06:42:50;12.60;99.90
55083;DHT22;40978;52.850;6.506;2023-01-01T06:45:15;12.60;99.90
55083;DHT22;40978;52.850;6.506;2023-01-01T06:47:41;12.60;99.90
55083;DHT22;40978;52.850;6.506;2023-01-01T06:50:07;12.50;99.90
55083;DHT22;40978;52.850;6.506;2023-01-01T06:52:33;12.60;99.90
55083;DHT22;40978;52.850;6.506;2023-01-01T06:54:59;12.50;99.90
55083;DHT22;40978;52.850;6.506;2023-01-01T06:57:24;12.50;99.90
55083;DHT22;40978;52.850;6.506;2023-01-01T06:59:50;12.50;99.90
55083;DHT22;40978;52.850;6.506;2023-01-01T07:02:16;12.50;99.90
55083;DHT22;40978;52.850;6.506;2023-01-01T07:04:41;12.40;99.90
55083;DHT22;40978;52.850;6.506;2023-01-01T07:07:07;12.40;99.90
55083;DHT22;40978;52.850;6.506;2023-01-01T07:09:33;12.40;99.90
55083;DHT22;40978;52.850;6.506;2023-01-01T07:11:58;12.40;99.90
55083;DHT22;40978;52.850;6.506;2023-01-01T07:14:24;12.40;99.90
55083;DHT22;40978;52.850;6.506;2023-01-01T07:16:50;12.30;99.90
55083;DHT22;40978;52.850;6.506;2023-01-01T07:19:15;12.30;99.90
55083;DHT22;40978;52.850;6.506;2023-01-01T07:21:59;12.30;99.90
55083;DHT22;40978;52.850;6.506;2023-01-01T07:24:25;12.30;99.90
55083;DHT22;40978;52.850;6.506;2023-01-01T07:26:51;12.30;99.90
55083;DHT22;40978;52.850;6.506;2023-01-01T07:29:16;12.30;99.90
55083;DHT22;40978;52.850;6.506;2023-01-01T07:31:43;12.30;99.90
55083;DHT22;40978;52.850;6.506;2023-01-01T07:34:16;12.20;99.90
55083;DHT22;40978;52.850;6.506;2023-01-01T07:36:43;12.20;99.90
55083;DHT22;40978;52.850;6.506;2023-01-01T07:39:09;12.20;99.90
55083;DHT22;40978;52.850;6.506;2023-01-01T07:41:35;12.20;99.90
55083;DHT22;40978;52.850;6.506;2023-01-01T07:44:00;12.20;99.90
55083;DHT22;40978;52.850;6.506;2023-01-01T07:46:26;12.20;99.90
55083;DHT22;40978;52.850;6.506;2023-01-01T07:48:52;12.20;99.90
55083;DHT22;40978;52.850;6.506;2023-01-01T07:51:18;12.20;99.90
55083;DHT22;40978;52.850;6.506;2023-01-01T07:53:44;12.10;99.90
55083;DHT22;40978;52.850;6.506;2023-01-01T07:56:09;12.10;99.90
55083;DHT22;40978;52.850;6.506;2023-01-01T07:58:39;12.10;99.90
55083;DHT22;40978;52.850;6.506;2023-01-01T08:01:05;12.10;99.90
55083;DHT22;40978;52.850;6.506;2023-01-01T08:03:30;12.10;99.90
55083;DHT22;40978;52.850;6.506;2023-01-01T08:05:56;12.10;99.90
55083;DHT22;40978;52.850;6.506;2023-01-01T08:08:22;12.00;99.90
55083;DHT22;40978;52.850;6.506;2023-01-01T08:10:47;12.00;99.90
55083;DHT22;40978;52.850;6.506;2023-01-01T08:13:13;12.00;99.90
55083;DHT22;40978;52.850;6.506;2023-01-01T08:15:39;12.10;99.90
55083;DHT22;40978;52.850;6.506;2023-01-01T08:18:04;12.00;99.90
55083;DHT22;40978;52.850;6.506;2023-01-01T08:20:32;12.00;99.90
55083;DHT22;40978;52.850;6.506;2023-01-01T08:22:57;12.00;99.90
55083;DHT22;40978;52.850;6.506;2023-01-01T08:25:23;12.00;99.90
55083;DHT22;40978;52.850;6.506;2023-01-01T08:27:49;11.90;99.90
55083;DHT22;40978;52.850;6.506;2023-01-01T08:30:16;11.90;99.90
55083;DHT22;40978;52.850;6.506;2023-01-01T08:32:41;11.90;99.90
55083;DHT22;40978;52.850;6.506;2023-01-01T08:35:08;11.90;99.90
55083;DHT22;40978;52.850;6.506;2023-01-01T08:37:34;11.90;99.90
55083;DHT22;40978;52.850;6.506;2023-01-01T08:39:59;11.90;99.90
55083;DHT22;40978;52.850;6.506;2023-01-01T08:42:25;11.80;99.90
55083;DHT22;40978;52.850;6.506;2023-01-01T08:44:51;11.80;99.90
55083;DHT22;40978;52.850;6.506;2023-01-01T08:47:18;11.80;99.90
55083;DHT22;40978;52.850;6.506;2023-01-01T08:49:44;11.80;99.90
55083;DHT22;40978;52.850;6.506;2023-01-01T08:52:10;11.80;99.90
55083;DHT22;40978;52.850;6.506;2023-01-01T08:54:36;11.80;99.90
55083;DHT22;40978;52.850;6.506;2023-01-01T08:57:02;11.80;99.90
55083;DHT22;40978;52.850;6.506;2023-01-01T08:59:27;11.80;99.90
55083;DHT22;40978;52.850;6.506;2023-01-01T09:01:53;11.80;99.90
55083;DHT22;40978;52.850;6.506;2023-01-01T09:04:19;11.80;99.90
55083;DHT22;40978;52.850;6.506;2023-01-01T09:06:44;11.80;99.90
55083;DHT22;40978;52.850;6.506;2023-01-01T09:09:10;11.80;99.90
55083;DHT22;40978;52.850;6.506;2023-01-01T09:11:36;11.80;99.90
55083;DHT22;40978;52.850;6.506;2023-01-01T09:14:02;11.80;99.90
55083;DHT22;40978;52.850;6.506;2023-01-01T09:16:27;11.80;99.90
55083;DHT22;40978;52.850;6.506;2023-01-01T09:18:53;11.80;99.90
55083;DHT22;40978;52.850;6.506;2023-01-01T09:21:19;11.80;99.90
55083;DHT22;40978;52.850;6.506;2023-01-01T09:23:45;11.80;99.90
55083;DHT22;40978;52.850;6.506;2023-01-01T09:26:10;11.80;99.90
55083;DHT22;40978;52.850;6.506;2023-01-01T09:28:37;11.80;99.90
55083;DHT22;40978;52.850;6.506;2023-01-01T09:31:03;11.80;99.90
55083;DHT22;40978;52.850;6.506;2023-01-01T09:33:31;11.90;99.90
55083;DHT22;40978;52.850;6.506;2023-01-01T09:38:52;11.80;99.90
55083;DHT22;40978;52.850;6.506;2023-01-01T09:47:05;12.00;99.90
55083;DHT22;40978;52.850;6.506;2023-01-01T09:49:39;12.00;99.90
55083;DHT22;40978;52.850;6.506;2023-01-01T09:52:08;12.00;99.90
55083;DHT22;40978;52.850;6.506;2023-01-01T09:57:16;12.00;99.90
55083;DHT22;40978;52.850;6.506;2023-01-01T09:59:42;12.00;99.90
55083;DHT22;40978;52.850;6.506;2023-01-01T10:05:30;12.00;99.90
55083;DHT22;40978;52.850;6.506;2023-01-01T10:10:54;12.10;99.90
55083;DHT22;40978;52.850;6.506;2023-01-01T10:13:33;12.10;99.90
55083;DHT22;40978;52.850;6.506;2023-01-01T10:16:14;12.10;99.90
55083;DHT22;40978;52.850;6.506;2023-01-01T10:18:49;12.10;99.90
55083;DHT22;40978;52.850;6.506;2023-01-01T10:21:29;12.00;99.90
55083;DHT22;40978;52.850;6.506;2023-01-01T10:24:13;12.00;99.90
55083;DHT22;40978;52.850;6.506;2023-01-01T10:26:48;12.00;99.90
55083;DHT22;40978;52.850;6.506;2023-01-01T10:29:21;12.00;99.90
55083;DHT22;40978;52.850;6.506;2023-01-01T10:31:49;12.00;99.90
55083;DHT22;40978;52.850;6.506;2023-01-01T10:34:21;12.10;99.90
55083;DHT22;40978;52.850;6.506;2023-01-01T10:36:51;12.10;99.90
55083;DHT22;40978;52.850;6.506;2023-01-01T10:39:18;12.20;99.90
55083;DHT22;40978;52.850;6.506;2023-01-01T10:41:45;12.30;99.90
55083;DHT22;40978;52.850;6.506;2023-01-01T10:44:12;12.30;99.90
55083;DHT22;40978;52.850;6.506;2023-01-01T10:46:43;12.40;99.90
55083;DHT22;40978;52.850;6.506;2023-01-01T10:49:12;12.40;99.90
55083;DHT22;40978;52.850;6.506;2023-01-01T10:51:44;12.40;99.90
55083;DHT22;40978;52.850;6.506;2023-01-01T10:56:45;12.50;99.90
55083;DHT22;40978;52.850;6.506;2023-01-01T10:59:42;12.50;99.90
55083;DHT22;40978;52.850;6.506;2023-01-01T11:04:47;12.60;99.90
55083;DHT22;40978;52.850;6.506;2023-01-01T11:07:21;12.60;99.90
55083;DHT22;40978;52.850;6.506;2023-01-01T11:09:49;12.60;99.90
55083;DHT22;40978;52.850;6.506;2023-01-01T11:12:20;12.60;99.90
55083;DHT22;40978;52.850;6.506;2023-01-01T11:14:51;12.60;99.90
55083;DHT22;40978;52.850;6.506;2023-01-01T11:17:23;12.60;99.90
55083;DHT22;40978;52.850;6.506;2023-01-01T11:19:50;12.60;99.90
55083;DHT22;40978;52.850;6.506;2023-01-01T11:25:02;12.60;99.90
55083;DHT22;40978;52.850;6.506;2023-01-01T11:27:28;12.50;99.90
55083;DHT22;40978;52.850;6.506;2023-01-01T11:32:45;12.50;99.90
55083;DHT22;40978;52.850;6.506;2023-01-01T11:35:23;12.50;99.90
55083;DHT22;40978;52.850;6.506;2023-01-01T11:37:51;12.60;99.90
55083;DHT22;40978;52.850;6.506;2023-01-01T11:40:35;12.60;99.90
55083;DHT22;40978;52.850;6.506;2023-01-01T11:43:03;12.70;99.90
55083;DHT22;40978;52.850;6.506;2023-01-01T11:45:38;12.70;99.90
55083;DHT22;40978;52.850;6.506;2023-01-01T11:48:16;12.60;99.90
55083;DHT22;40978;52.850;6.506;2023-01-01T11:50:51;12.70;99.90
55083;DHT22;40978;52.850;6.506;2023-01-01T11:56:11;12.70;99.90
55083;DHT22;40978;52.850;6.506;2023-01-01T12:01:15;12.80;99.90
55083;DHT22;40978;52.850;6.506;2023-01-01T12:04:09;12.70;99.90
55083;DHT22;40978;52.850;6.506;2023-01-01T12:12:07;12.70;99.90
55083;DHT22;40978;52.850;6.506;2023-01-01T12:14:37;12.70;99.90
55083;DHT22;40978;52.850;6.506;2023-01-01T12:17:35;12.70;99.90
55083;DHT22;40978;52.850;6.506;2023-01-01T12:20:11;12.70;99.90
55083;DHT22;40978;52.850;6.506;2023-01-01T12:22:39;12.70;99.90
55083;DHT22;40978;52.850;6.506;2023-01-01T12:25:12;12.70;99.90
55083;DHT22;40978;52.850;6.506;2023-01-01T12:31:02;12.70;99.90
55083;DHT22;40978;52.850;6.506;2023-01-01T12:42:11;12.60;99.90
55083;DHT22;40978;52.850;6.506;2023-01-01T13:01:16;12.40;99.90
55083;DHT22;40978;52.850;6.506;2023-01-01T13:03:49;12.40;99.90
55083;DHT22;40978;52.850;6.506;2023-01-01T13:06:19;12.40;99.90
55083;DHT22;40978;52.850;6.506;2023-01-01T13:08:51;12.40;99.90
55083;DHT22;40978;52.850;6.506;2023-01-01T13:11:21;12.40;99.90
55083;DHT22;40978;52.850;6.506;2023-01-01T13:13:49;12.40;99.90
55083;DHT22;40978;52.850;6.506;2023-01-01T13:16:35;12.30;99.90
55083;DHT22;40978;52.850;6.506;2023-01-01T13:19:02;12.40;99.90
55083;DHT22;40978;52.850;6.506;2023-01-01T13:21:27;12.40;99.90
55083;DHT22;40978;52.850;6.506;2023-01-01T13:24:03;12.30;99.90
55083;DHT22;40978;52.850;6.506;2023-01-01T13:26:32;12.30;99.90
55083;DHT22;40978;52.850;6.506;2023-01-01T13:34:37;12.20;99.90
55083;DHT22;40978;52.850;6.506;2023-01-01T13:39:58;12.20;99.90
55083;DHT22;40978;52.850;6.506;2023-01-01T13:45:37;12.10;99.90
55083;DHT22;40978;52.850;6.506;2023-01-01T13:51:22;12.10;99.90
55083;DHT22;40978;52.850;6.506;2023-01-01T13:57:02;12.10;99.90
55083;DHT22;40978;52.850;6.506;2023-01-01T13:59:34;12.10;99.90
55083;DHT22;40978;52.850;6.506;2023-01-01T14:05:12;12.10;99.90
55083;DHT22;40978;52.850;6.506;2023-01-01T14:07:51;12.10;99.90
55083;DHT22;40978;52.850;6.506;2023-01-01T14:10:32;12.10;99.90
55083;DHT22;40978;52.850;6.506;2023-01-01T14:15:30;12.00;99.90
55083;DHT22;40978;52.850;6.506;2023-01-01T14:17:58;12.10;99.90
55083;DHT22;40978;52.850;6.506;2023-01-01T14:20:39;12.00;99.90
55083;DHT22;40978;52.850;6.506;2023-01-01T14:23:12;12.00;99.90
55083;DHT22;40978;52.850;6.506;2023-01-01T14:25:41;12.00;99.90
55083;DHT22;40978;52.850;6.506;2023-01-01T14:28:25;12.00;99.90
55083;DHT22;40978;52.850;6.506;2023-01-01T14:30:52;12.00;99.90
55083;DHT22;40978;52.850;6.506;2023-01-01T14:33:30;12.00;99.90
55083;DHT22;40978;52.850;6.506;2023-01-01T14:36:02;12.00;99.90
55083;DHT22;40978;52.850;6.506;2023-01-01T14:38:34;11.90;99.90
55083;DHT22;40978;52.850;6.506;2023-01-01T14:43:48;11.90;99.90
55083;DHT22;40978;52.850;6.506;2023-01-01T14:46:18;11.90;99.90
55083;DHT22;40978;52.850;6.506;2023-01-01T14:48:45;11.80;99.90
55083;DHT22;40978;52.850;6.506;2023-01-01T14:51:18;11.80;99.90
55083;DHT22;40978;52.850;6.506;2023-01-01T14:53:47;11.80;99.90
55083;DHT22;40978;52.850;6.506;2023-01-01T14:56:31;11.80;99.90
55083;DHT22;40978;52.850;6.506;2023-01-01T15:01:38;11.70;99.90
55083;DHT22;40978;52.850;6.506;2023-01-01T15:04:18;11.70;99.90
55083;DHT22;40978;52.850;6.506;2023-01-01T15:06:44;11.60;99.90
55083;DHT22;40978;52.850;6.506;2023-01-01T15:09:16;11.60;99.90
55083;DHT22;40978;52.850;6.506;2023-01-01T15:11:42;11.60;99.90
55083;DHT22;40978;52.850;6.506;2023-01-01T15:14:47;11.50;99.90
55083;DHT22;40978;52.850;6.506;2023-01-01T15:17:19;11.50;99.90
55083;DHT22;40978;52.850;6.506;2023-01-01T15:19:59;11.50;99.90
55083;DHT22;40978;52.850;6.506;2023-01-01T15:22:29;11.50;99.90
55083;DHT22;40978;52.850;6.506;2023-01-01T15:24:56;11.50;99.90
55083;DHT22;40978;52.850;6.506;2023-01-01T15:27:30;11.40;99.90
55083;DHT22;40978;52.850;6.506;2023-01-01T15:29:57;11.40;99.90
55083;DHT22;40978;52.850;6.506;2023-01-01T15:32:29;11.40;99.90
55083;DHT22;40978;52.850;6.506;2023-01-01T15:35:04;11.40;99.90
55083;DHT22;40978;52.850;6.506;2023-01-01T15:37:44;11.30;99.90
55083;DHT22;40978;52.850;6.506;2023-01-01T15:45:30;11.30;99.90
55083;DHT22;40978;52.850;6.506;2023-01-01T15:48:18;11.30;99.90
55083;DHT22;40978;52.850;6.506;2023-01-01T15:53:22;11.20;99.90
55083;DHT22;40978;52.850;6.506;2023-01-01T15:55:54;11.20;99.90
55083;DHT22;40978;52.850;6.506;2023-01-01T15:58:36;11.20;99.90
55083;DHT22;40978;52.850;6.506;2023-01-01T16:01:11;11.10;99.90
55083;DHT22;40978;52.850;6.506;2023-01-01T16:03:40;11.10;99.90
55083;DHT22;40978;52.850;6.506;2023-01-01T16:06:06;11.10;99.90
55083;DHT22;40978;52.850;6.506;2023-01-01T16:08:32;11.10;99.90
55083;DHT22;40978;52.850;6.506;2023-01-01T16:10:58;11.10;99.90
55083;DHT22;40978;52.850;6.506;2023-01-01T16:13:23;11.10;99.90
55083;DHT22;40978;52.850;6.506;2023-01-01T16:15:56;11.10;99.90
55083;DHT22;40978;52.850;6.506;2023-01-01T16:18:33;11.10;99.90
55083;DHT22;40978;52.850;6.506;2023-01-01T16:21:00;11.10;99.90
55083;DHT22;40978;52.850;6.506;2023-01-01T16:23:27;11.10;99.90
55083;DHT22;40978;52.850;6.506;2023-01-01T16:25:53;11.10;99.90
55083;DHT22;40978;52.850;6.506;2023-01-01T16:28:18;11.10;99.90
55083;DHT22;40978;52.850;6.506;2023-01-01T16:30:44;11.00;99.90
55083;DHT22;40978;52.850;6.506;2023-01-01T16:33:15;11.00;99.90
55083;DHT22;40978;52.850;6.506;2023-01-01T16:35:42;11.00;99.90
55083;DHT22;40978;52.850;6.506;2023-01-01T16:38:07;11.00;99.90
55083;DHT22;40978;52.850;6.506;2023-01-01T16:40:33;11.00;99.90
55083;DHT22;40978;52.850;6.506;2023-01-01T16:42:59;11.00;99.90
55083;DHT22;40978;52.850;6.506;2023-01-01T16:45:25;11.00;99.90
55083;DHT22;40978;52.850;6.506;2023-01-01T16:47:51;11.00;99.90
55083;DHT22;40978;52.850;6.506;2023-01-01T16:50:17;11.00;99.90
55083;DHT22;40978;52.850;6.506;2023-01-01T16:52:43;11.00;99.90
55083;DHT22;40978;52.850;6.506;2023-01-01T16:55:09;11.00;99.90
55083;DHT22;40978;52.850;6.506;2023-01-01T16:57:34;11.00;99.90
55083;DHT22;40978;52.850;6.506;2023-01-01T17:00:00;11.00;99.90
55083;DHT22;40978;52.850;6.506;2023-01-01T17:02:27;11.00;99.90
55083;DHT22;40978;52.850;6.506;2023-01-01T17:04:53;11.00;99.90
55083;DHT22;40978;52.850;6.506;2023-01-01T17:07:19;11.00;99.90
55083;DHT22;40978;52.850;6.506;2023-01-01T17:09:45;11.00;99.90
55083;DHT22;40978;52.850;6.506;2023-01-01T17:12:10;11.00;99.90
55083;DHT22;40978;52.850;6.506;2023-01-01T17:14:36;11.00;99.90
55083;DHT22;40978;52.850;6.506;2023-01-01T17:17:02;11.00;99.90
55083;DHT22;40978;52.850;6.506;2023-01-01T17:19:27;11.00;99.90
55083;DHT22;40978;52.850;6.506;2023-01-01T17:21:53;11.10;99.90
55083;DHT22;40978;52.850;6.506;2023-01-01T17:24:19;11.10;99.90
55083;DHT22;40978;52.850;6.506;2023-01-01T17:26:49;11.10;99.90
55083;DHT22;40978;52.850;6.506;2023-01-01T17:29:16;11.10;99.90
55083;DHT22;40978;52.850;6.506;2023-01-01T17:31:41;11.10;99.90
55083;DHT22;40978;52.850;6.506;2023-01-01T17:34:08;11.10;99.90
55083;DHT22;40978;52.850;6.506;2023-01-01T17:36:37;11.10;99.90
55083;DHT22;40978;52.850;6.506;2023-01-01T17:39:03;11.10;99.90
55083;DHT22;40978;52.850;6.506;2023-01-01T17:41:29;11.20;99.90
55083;DHT22;40978;52.850;6.506;2023-01-01T17:43:55;11.20;99.90
55083;DHT22;40978;52.850;6.506;2023-01-01T17:46:26;11.10;99.90
55083;DHT22;40978;52.850;6.506;2023-01-01T17:48:58;11.20;99.90
55083;DHT22;40978;52.850;6.506;2023-01-01T17:51:24;11.20;99.90
55083;DHT22;40978;52.850;6.506;2023-01-01T17:53:50;11.20;99.90
55083;DHT22;40978;52.850;6.506;2023-01-01T17:56:17;11.20;99.90
55083;DHT22;40978;52.850;6.506;2023-01-01T17:58:44;11.20;99.90